sensor_id;sensor_type;location;lat;lon;timestamp;pressure;altitude;pressure_sealevel;temperature;humidity
51715;BME280;39115;59.332;18.034;2023-02-19T00:02:00;99644.63;;;0.15;58.42
51715;BME280;39115;59.332;18.034;2023-02-19T00:04:21;99639.44;;;0.14;57.94
51715;BME280;39115;59.332;18.034;2023-02-19T00:06:42;99644.78;;;0.12;57.93
51715;BME280;39115;59.332;18.034;2023-02-19T00:09:03;99650.03;;;0.12;58.10
51715;BME280;39115;59.332;18.034;2023-02-19T00:11:26;99664.97;;;0.10;57.88
51715;BME280;39115;59.332;18.034;2023-02-19T00:13:49;99643.28;;;0.08;58.27
51715;BME280;39115;59.332;18.034;2023-02-19T00:16:19;99640.66;;;0.08;57.93
51715;BME280;39115;59.332;18.034;2023-02-19T00:18:41;99652.91;;;0.08;57.92
51715;BME280;39115;59.332;18.034;2023-02-19T00:21:02;99641.69;;;0.06;57.97
51715;BME280;39115;59.332;18.034;2023-02-19T00:23:23;99641.81;;;0.04;58.07
51715;BME280;39115;59.332;18.034;2023-02-19T00:25:43;99647.03;;;0.04;58.31
51715;BME280;39115;59.332;18.034;2023-02-19T00:28:04;99645.44;;;0.02;58.18
51715;BME280;39115;59.332;18.034;2023-02-19T00:30:24;99640.31;;;0.00;58.20
51715;BME280;39115;59.332;18.034;2023-02-19T00:32:49;99644.69;;;-0.01;58.06
51715;BME280;39115;59.332;18.034;2023-02-19T00:35:10;99659.66;;;-0.03;58.03
51715;BME280;39115;59.332;18.034;2023-02-19T00:37:30;99658.91;;;-0.05;57.94
51715;BME280;39115;59.332;18.034;2023-02-19T00:39:51;99655.66;;;-0.08;58.13
51715;BME280;39115;59.332;18.034;2023-02-19T00:42:11;99655.53;;;-0.07;57.99
51715;BME280;39115;59.332;18.034;2023-02-19T00:44:32;99668.72;;;-0.08;58.38
51715;BME280;39115;59.332;18.034;2023-02-19T00:46:52;99652.16;;;-0.09;57.95
51715;BME280;39115;59.332;18.034;2023-02-19T00:49:21;99655.72;;;-0.10;58.05
51715;BME280;39115;59.332;18.034;2023-02-19T00:51:42;99662.84;;;-0.12;58.13
51715;BME280;39115;59.332;18.034;2023-02-19T00:54:04;99648.16;;;-0.14;58.00
51715;BME280;39115;59.332;18.034;2023-02-19T00:56:25;99654.31;;;-0.16;58.10
51715;BME280;39115;59.332;18.034;2023-02-19T00:58:46;99650.03;;;-0.17;58.38
51715;BME280;39115;59.332;18.034;2023-02-19T01:01:07;99653.59;;;-0.18;58.06
51715;BME280;39115;59.332;18.034;2023-02-19T01:03:28;99656.19;;;-0.18;58.15
51715;BME280;39115;59.332;18.034;2023-02-19T01:05:50;99661.50;;;-0.19;58.33
51715;BME280;39115;59.332;18.034;2023-02-19T01:08:11;99666.84;;;-0.21;57.97
51715;BME280;39115;59.332;18.034;2023-02-19T01:10:31;99656.47;;;-0.22;58.05
51715;BME280;39115;59.332;18.034;2023-02-19T01:12:52;99667.88;;;-0.23;58.23
51715;BME280;39115;59.332;18.034;2023-02-19T01:15:13;99662.72;;;-0.25;58.42
51715;BME280;39115;59.332;18.034;2023-02-19T01:17:34;99658.44;;;-0.26;58.28
51715;BME280;39115;59.332;18.034;2023-02-19T01:19:55;99654.13;;;-0.27;58.16
51715;BME280;39115;59.332;18.034;2023-02-19T01:22:15;99650.69;;;-0.27;58.17
51715;BME280;39115;59.332;18.034;2023-02-19T01:24:36;99661.22;;;-0.29;58.13
51715;BME280;39115;59.332;18.034;2023-02-19T01:26:56;99659.53;;;-0.30;58.30
51715;BME280;39115;59.332;18.034;2023-02-19T01:29:17;99657.03;;;-0.32;58.13
51715;BME280;39115;59.332;18.034;2023-02-19T01:31:39;99653.56;;;-0.32;58.24
51715;BME280;39115;59.332;18.034;2023-02-19T01:34:02;99657.94;;;-0.33;57.90
51715;BME280;39115;59.332;18.034;2023-02-19T01:36:24;99654.56;;;-0.35;58.01
51715;BME280;39115;59.332;18.034;2023-02-19T01:38:45;99662.63;;;-0.38;58.26
51715;BME280;39115;59.332;18.034;2023-02-19T01:41:07;99655.59;;;-0.37;58.08
51715;BME280;39115;59.332;18.034;2023-02-19T01:43:31;99654.00;;;-0.40;57.92
51715;BME280;39115;59.332;18.034;2023-02-19T01:45:52;99653.19;;;-0.40;58.11
51715;BME280;39115;59.332;18.034;2023-02-19T01:48:51;99649.72;;;-0.41;58.12
51715;BME280;39115;59.332;18.034;2023-02-19T01:51:09;99655.88;;;-0.42;57.72
51715;BME280;39115;59.332;18.034;2023-02-19T01:53:33;99660.38;;;-0.44;58.13
51715;BME280;39115;59.332;18.034;2023-02-19T01:55:58;99652.53;;;-0.44;57.99
51715;BME280;39115;59.332;18.034;2023-02-19T01:58:19;99647.38;;;-0.45;57.98
51715;BME280;39115;59.332;18.034;2023-02-19T02:00:41;99646.53;;;-0.46;57.94
51715;BME280;39115;59.332;18.034;2023-02-19T02:03:01;99660.53;;;-0.47;57.76
51715;BME280;39115;59.332;18.034;2023-02-19T02:07:46;99651.94;;;-0.49;57.77
51715;BME280;39115;59.332;18.034;2023-02-19T02:10:25;99651.94;;;-0.49;58.08
51715;BME280;39115;59.332;18.034;2023-02-19T02:12:47;99638.97;;;-0.51;57.88
51715;BME280;39115;59.332;18.034;2023-02-19T02:15:08;99655.47;;;-0.50;57.88
51715;BME280;39115;59.332;18.034;2023-02-19T02:23:15;99652.97;;;-0.52;57.87
51715;BME280;39115;59.332;18.034;2023-02-19T02:33:05;99636.53;;;-0.54;58.05
51715;BME280;39115;59.332;18.034;2023-02-19T02:35:34;99640.09;;;-0.55;57.92
51715;BME280;39115;59.332;18.034;2023-02-19T02:38:01;99634.00;;;-0.55;57.49
51715;BME280;39115;59.332;18.034;2023-02-19T02:40:23;99641.84;;;-0.55;57.81
51715;BME280;39115;59.332;18.034;2023-02-19T02:42:43;99629.72;;;-0.56;57.73
51715;BME280;39115;59.332;18.034;2023-02-19T02:47:55;99640.25;;;-0.58;57.64
51715;BME280;39115;59.332;18.034;2023-02-19T02:52:40;99635.03;;;-0.58;57.72
51715;BME280;39115;59.332;18.034;2023-02-19T02:55:22;99631.66;;;-0.60;57.80
51715;BME280;39115;59.332;18.034;2023-02-19T02:57:43;99626.44;;;-0.60;57.73
51715;BME280;39115;59.332;18.034;2023-02-19T03:00:05;99632.59;;;-0.61;57.73
51715;BME280;39115;59.332;18.034;2023-02-19T03:02:27;99651.81;;;-0.62;57.90
51715;BME280;39115;59.332;18.034;2023-02-19T03:07:45;99628.50;;;-0.65;57.54
51715;BME280;39115;59.332;18.034;2023-02-19T03:10:12;99638.94;;;-0.65;57.86
51715;BME280;39115;59.332;18.034;2023-02-19T03:12:36;99642.47;;;-0.66;57.87
51715;BME280;39115;59.332;18.034;2023-02-19T03:15:18;99639.03;;;-0.67;57.81
51715;BME280;39115;59.332;18.034;2023-02-19T03:18:02;99642.59;;;-0.68;57.60
51715;BME280;39115;59.332;18.034;2023-02-19T03:20:46;99645.19;;;-0.68;57.72
51715;BME280;39115;59.332;18.034;2023-02-19T03:23:08;99646.03;;;-0.67;57.79
51715;BME280;39115;59.332;18.034;2023-02-19T03:25:32;99654.72;;;-0.67;57.76
51715;BME280;39115;59.332;18.034;2023-02-19T03:28:16;99658.28;;;-0.68;57.34
51715;BME280;39115;59.332;18.034;2023-02-19T03:30:45;99667.88;;;-0.68;57.65
51715;BME280;39115;59.332;18.034;2023-02-19T03:33:09;99673.09;;;-0.68;57.92
51715;BME280;39115;59.332;18.034;2023-02-19T03:35:35;99660.13;;;-0.70;57.62
51715;BME280;39115;59.332;18.034;2023-02-19T03:38:24;99661.81;;;-0.69;58.14
51715;BME280;39115;59.332;18.034;2023-02-19T03:46:44;99688.88;;;-0.70;57.68
51715;BME280;39115;59.332;18.034;2023-02-19T03:49:16;99683.75;;;-0.71;57.98
51715;BME280;39115;59.332;18.034;2023-02-19T03:51:42;99676.63;;;-0.69;57.70
51715;BME280;39115;59.332;18.034;2023-02-19T03:54:12;99675.69;;;-0.68;57.92
51715;BME280;39115;59.332;18.034;2023-02-19T03:56:42;99688.78;;;-0.68;57.82
51715;BME280;39115;59.332;18.034;2023-02-19T03:59:39;99702.50;;;-0.65;58.03
51715;BME280;39115;59.332;18.034;2023-02-19T04:02:33;99699.91;;;-0.65;57.88
51715;BME280;39115;59.332;18.034;2023-02-19T04:05:05;99731.19;;;-0.63;58.08
51715;BME280;39115;59.332;18.034;2023-02-19T04:07:30;99716.34;;;-0.62;57.83
51715;BME280;39115;59.332;18.034;2023-02-19T04:09:53;99697.13;;;-0.61;58.00
51715;BME280;39115;59.332;18.034;2023-02-19T04:12:15;99705.72;;;-0.59;57.86
51715;BME280;39115;59.332;18.034;2023-02-19T04:14:42;99708.22;;;-0.58;57.77
51715;BME280;39115;59.332;18.034;2023-02-19T04:17:10;99701.22;;;-0.57;57.80
51715;BME280;39115;59.332;18.034;2023-02-19T04:19:35;99704.59;;;-0.55;57.89
51715;BME280;39115;59.332;18.034;2023-02-19T04:21:58;99716.75;;;-0.54;57.72
51715;BME280;39115;59.332;18.034;2023-02-19T04:24:27;99707.97;;;-0.53;57.79
51715;BME280;39115;59.332;18.034;2023-02-19T04:26:49;99706.28;;;-0.54;57.81
51715;BME280;39115;59.332;18.034;2023-02-19T04:29:09;99707.97;;;-0.53;57.94
51715;BME280;39115;59.332;18.034;2023-02-19T04:31:31;99710.59;;;-0.53;57.89
51715;BME280;39115;59.332;18.034;2023-02-19T04:33:54;99707.97;;;-0.53;57.90
51715;BME280;39115;59.332;18.034;2023-02-19T04:36:14;99714.88;;;-0.52;57.83
51715;BME280;39115;59.332;18.034;2023-02-19T04:38:35;99726.06;;;-0.50;57.46
51715;BME280;39115;59.332;18.034;2023-02-19T04:40:56;99713.75;;;-0.48;57.81
51715;BME280;39115;59.332;18.034;2023-02-19T04:43:17;99720.59;;;-0.45;57.56
51715;BME280;39115;59.332;18.034;2023-02-19T04:45:37;99710.06;;;-0.44;57.63
51715;BME280;39115;59.332;18.034;2023-02-19T04:47:58;99716.97;;;-0.43;57.75
51715;BME280;39115;59.332;18.034;2023-02-19T04:50:18;99720.41;;;-0.42;57.83
51715;BME280;39115;59.332;18.034;2023-02-19T04:52:39;99716.88;;;-0.41;57.72
51715;BME280;39115;59.332;18.034;2023-02-19T04:55:00;99705.50;;;-0.40;57.64
51715;BME280;39115;59.332;18.034;2023-02-19T04:57:20;99706.22;;;-0.38;57.63
51715;BME280;39115;59.332;18.034;2023-02-19T04:59:40;99705.38;;;-0.39;57.83
51715;BME280;39115;59.332;18.034;2023-02-19T05:02:01;99704.63;;;-0.41;57.60
51715;BME280;39115;59.332;18.034;2023-02-19T05:04:22;99702.94;;;-0.42;57.61
51715;BME280;39115;59.332;18.034;2023-02-19T05:06:43;99715.19;;;-0.42;57.81
51715;BME280;39115;59.332;18.034;2023-02-19T05:09:03;99703.03;;;-0.43;57.95
51715;BME280;39115;59.332;18.034;2023-02-19T05:11:24;99714.44;;;-0.44;57.44
51715;BME280;39115;59.332;18.034;2023-02-19T05:13:44;99707.72;;;-0.49;57.49
51715;BME280;39115;59.332;18.034;2023-02-19T05:16:10;99708.63;;;-0.50;57.81
51715;BME280;39115;59.332;18.034;2023-02-19T05:18:35;99708.63;;;-0.50;57.64
51715;BME280;39115;59.332;18.034;2023-02-19T05:20:56;99713.97;;;-0.51;57.55
51715;BME280;39115;59.332;18.034;2023-02-19T05:23:19;99706.19;;;-0.53;57.67
51715;BME280;39115;59.332;18.034;2023-02-19T05:25:39;99711.50;;;-0.54;57.68
51715;BME280;39115;59.332;18.034;2023-02-19T05:28:00;99715.97;;;-0.56;57.79
51715;BME280;39115;59.332;18.034;2023-02-19T05:30:36;99709.25;;;-0.60;57.62
51715;BME280;39115;59.332;18.034;2023-02-19T05:32:56;99706.66;;;-0.60;57.60
51715;BME280;39115;59.332;18.034;2023-02-19T05:35:17;99716.34;;;-0.62;57.54
51715;BME280;39115;59.332;18.034;2023-02-19T05:37:37;99712.69;;;-0.60;57.59
51715;BME280;39115;59.332;18.034;2023-02-19T05:39:58;99709.25;;;-0.60;57.94
51715;BME280;39115;59.332;18.034;2023-02-19T05:42:18;99719.88;;;-0.64;57.55
51715;BME280;39115;59.332;18.034;2023-02-19T05:44:39;99725.22;;;-0.65;57.41
51715;BME280;39115;59.332;18.034;2023-02-19T05:46:59;99731.34;;;-0.66;57.65
51715;BME280;39115;59.332;18.034;2023-02-19T05:49:20;99741.00;;;-0.67;57.75
51715;BME280;39115;59.332;18.034;2023-02-19T05:51:41;99726.28;;;-0.69;57.61
51715;BME280;39115;59.332;18.034;2023-02-19T05:54:02;99732.38;;;-0.69;57.47
51715;BME280;39115;59.332;18.034;2023-02-19T05:56:30;99756.84;;;-0.70;57.61
51715;BME280;39115;59.332;18.034;2023-02-19T05:58:52;99737.78;;;-0.72;57.63
51715;BME280;39115;59.332;18.034;2023-02-19T06:01:17;99731.78;;;-0.74;57.58
51715;BME280;39115;59.332;18.034;2023-02-19T06:03:38;99730.13;;;-0.75;57.55
51715;BME280;39115;59.332;18.034;2023-02-19T06:05:59;99744.94;;;-0.75;57.44
51715;BME280;39115;59.332;18.034;2023-02-19T06:08:19;99742.44;;;-0.77;57.49
51715;BME280;39115;59.332;18.034;2023-02-19T06:10:40;99738.97;;;-0.77;57.66
51715;BME280;39115;59.332;18.034;2023-02-19T06:13:01;99757.25;;;-0.77;57.64
51715;BME280;39115;59.332;18.034;2023-02-19T06:15:21;99752.13;;;-0.79;57.60
51715;BME280;39115;59.332;18.034;2023-02-19T06:17:42;99755.66;;;-0.80;57.59
51715;BME280;39115;59.332;18.034;2023-02-19T06:20:03;99771.34;;;-0.80;57.65
51715;BME280;39115;59.332;18.034;2023-02-19T06:22:24;99771.44;;;-0.82;57.40
51715;BME280;39115;59.332;18.034;2023-02-19T06:24:46;99765.44;;;-0.84;57.54
51715;BME280;39115;59.332;18.034;2023-02-19T06:27:09;99765.38;;;-0.82;57.58
51715;BME280;39115;59.332;18.034;2023-02-19T06:29:30;99768.00;;;-0.82;57.80
51715;BME280;39115;59.332;18.034;2023-02-19T06:31:51;99766.31;;;-0.83;57.57
51715;BME280;39115;59.332;18.034;2023-02-19T06:34:12;99773.28;;;-0.84;57.56
51715;BME280;39115;59.332;18.034;2023-02-19T06:36:33;99771.53;;;-0.83;57.78
51715;BME280;39115;59.332;18.034;2023-02-19T06:38:58;99785.44;;;-0.83;57.64
51715;BME280;39115;59.332;18.034;2023-02-19T06:41:19;99781.13;;;-0.84;57.65
51715;BME280;39115;59.332;18.034;2023-02-19T06:43:39;99768.06;;;-0.84;57.75
51715;BME280;39115;59.332;18.034;2023-02-19T06:46:01;99782.81;;;-0.83;57.65
51715;BME280;39115;59.332;18.034;2023-02-19T06:48:22;99788.91;;;-0.82;57.81
51715;BME280;39115;59.332;18.034;2023-02-19T06:50:43;99784.50;;;-0.82;57.24
51715;BME280;39115;59.332;18.034;2023-02-19T06:53:03;99793.16;;;-0.81;57.63
51715;BME280;39115;59.332;18.034;2023-02-19T06:55:24;99790.56;;;-0.81;57.31
51715;BME280;39115;59.332;18.034;2023-02-19T06:57:44;99792.25;;;-0.80;57.68
51715;BME280;39115;59.332;18.034;2023-02-19T07:00:05;99787.03;;;-0.80;57.48
51715;BME280;39115;59.332;18.034;2023-02-19T07:02:26;99796.56;;;-0.79;57.65
51715;BME280;39115;59.332;18.034;2023-02-19T07:04:46;99803.56;;;-0.80;57.60
51715;BME280;39115;59.332;18.034;2023-02-19T07:07:10;99789.63;;;-0.80;57.41
51715;BME280;39115;59.332;18.034;2023-02-19T07:09:31;99807.00;;;-0.79;57.52
51715;BME280;39115;59.332;18.034;2023-02-19T07:11:52;99807.78;;;-0.77;57.47
51715;BME280;39115;59.332;18.034;2023-02-19T07:14:14;99812.06;;;-0.76;57.38
51715;BME280;39115;59.332;18.034;2023-02-19T07:16:35;99812.91;;;-0.75;57.44
51715;BME280;39115;59.332;18.034;2023-02-19T07:18:57;99813.75;;;-0.75;57.54
51715;BME280;39115;59.332;18.034;2023-02-19T07:21:18;99809.38;;;-0.74;57.25
51715;BME280;39115;59.332;18.034;2023-02-19T07:23:39;99831.97;;;-0.73;57.32
51715;BME280;39115;59.332;18.034;2023-02-19T07:26:00;99817.88;;;-0.71;57.33
51715;BME280;39115;59.332;18.034;2023-02-19T07:28:21;99826.56;;;-0.70;57.44
51715;BME280;39115;59.332;18.034;2023-02-19T07:30:41;99813.31;;;-0.67;57.25
51715;BME280;39115;59.332;18.034;2023-02-19T07:33:02;99825.47;;;-0.66;57.25
51715;BME280;39115;59.332;18.034;2023-02-19T07:35:22;99820.06;;;-0.63;57.30
51715;BME280;39115;59.332;18.034;2023-02-19T07:37:43;99832.19;;;-0.62;56.86
51715;BME280;39115;59.332;18.034;2023-02-19T07:40:03;99837.41;;;-0.62;56.99
51715;BME280;39115;59.332;18.034;2023-02-19T07:42:24;99843.50;;;-0.61;57.04
51715;BME280;39115;59.332;18.034;2023-02-19T07:44:45;99827.81;;;-0.61;56.87
51715;BME280;39115;59.332;18.034;2023-02-19T07:47:05;99829.41;;;-0.59;57.09
51715;BME280;39115;59.332;18.034;2023-02-19T07:49:25;99837.09;;;-0.56;57.15
51715;BME280;39115;59.332;18.034;2023-02-19T07:51:46;99834.41;;;-0.54;56.83
51715;BME280;39115;59.332;18.034;2023-02-19T07:54:07;99841.22;;;-0.52;56.96
51715;BME280;39115;59.332;18.034;2023-02-19T07:56:27;99846.34;;;-0.50;56.92
51715;BME280;39115;59.332;18.034;2023-02-19T07:58:48;99840.03;;;-0.46;56.93
51715;BME280;39115;59.332;18.034;2023-02-19T08:01:24;99851.16;;;-0.42;56.95
51715;BME280;39115;59.332;18.034;2023-02-19T08:04:04;99846.59;;;-0.39;56.65
51715;BME280;39115;59.332;18.034;2023-02-19T08:06:24;99838.50;;;-0.34;56.49
51715;BME280;39115;59.332;18.034;2023-02-19T08:08:45;99845.31;;;-0.32;56.63
51715;BME280;39115;59.332;18.034;2023-02-19T08:11:05;99846.09;;;-0.29;56.64
51715;BME280;39115;59.332;18.034;2023-02-19T08:13:47;99852.81;;;-0.25;56.49
51715;BME280;39115;59.332;18.034;2023-02-19T08:16:11;99853.59;;;-0.23;56.20
51715;BME280;39115;59.332;18.034;2023-02-19T08:18:32;99854.16;;;-0.18;56.60
51715;BME280;39115;59.332;18.034;2023-02-19T08:20:53;99842.59;;;-0.14;56.56
51715;BME280;39115;59.332;18.034;2023-02-19T08:23:14;99857.94;;;-0.08;56.45
51715;BME280;39115;59.332;18.034;2023-02-19T08:25:35;99843.66;;;-0.02;56.04
51715;BME280;39115;59.332;18.034;2023-02-19T08:27:56;99851.31;;;0.01;56.00
51715;BME280;39115;59.332;18.034;2023-02-19T08:30:16;99852.09;;;0.03;55.95
51715;BME280;39115;59.332;18.034;2023-02-19T08:32:37;99865.84;;;0.07;55.93
51715;BME280;39115;59.332;18.034;2023-02-19T08:35:00;99856.97;;;0.09;55.81
51715;BME280;39115;59.332;18.034;2023-02-19T08:37:21;99846.22;;;0.14;55.75
51715;BME280;39115;59.332;18.034;2023-02-19T08:39:41;99859.13;;;0.17;55.71
51715;BME280;39115;59.332;18.034;2023-02-19T08:42:02;99851.84;;;0.22;55.40
51715;BME280;39115;59.332;18.034;2023-02-19T08:44:23;99876.06;;;0.26;55.82
51715;BME280;39115;59.332;18.034;2023-02-19T08:46:43;99863.66;;;0.29;55.51
51715;BME280;39115;59.332;18.034;2023-02-19T08:49:03;99864.31;;;0.33;55.42
51715;BME280;39115;59.332;18.034;2023-02-19T08:51:24;99860.66;;;0.36;55.27
51715;BME280;39115;59.332;18.034;2023-02-19T08:53:44;99858.69;;;0.39;54.97
51715;BME280;39115;59.332;18.034;2023-02-19T08:56:10;99859.09;;;0.47;55.22
51715;BME280;39115;59.332;18.034;2023-02-19T08:58:32;99888.56;;;0.51;55.30
51715;BME280;39115;59.332;18.034;2023-02-19T09:00:52;99869.22;;;0.54;54.99
51715;BME280;39115;59.332;18.034;2023-02-19T09:03:13;99882.00;;;0.58;55.03
51715;BME280;39115;59.332;18.034;2023-02-19T09:05:33;99893.06;;;0.63;54.88
51715;BME280;39115;59.332;18.034;2023-02-19T09:07:54;99870.16;;;0.67;55.16
51715;BME280;39115;59.332;18.034;2023-02-19T09:10:14;99881.84;;;0.76;54.74
51715;BME280;39115;59.332;18.034;2023-02-19T09:12:35;99879.81;;;0.81;54.71
51715;BME280;39115;59.332;18.034;2023-02-19T09:14:57;99879.59;;;0.84;54.50
51715;BME280;39115;59.332;18.034;2023-02-19T09:17:17;99897.50;;;0.92;54.55
51715;BME280;39115;59.332;18.034;2023-02-19T09:19:38;99893.63;;;0.98;54.53
51715;BME280;39115;59.332;18.034;2023-02-19T09:21:59;99892.63;;;1.00;54.34
51715;BME280;39115;59.332;18.034;2023-02-19T09:24:20;99895.91;;;1.04;54.22
51715;BME280;39115;59.332;18.034;2023-02-19T09:26:40;99896.56;;;1.07;53.88
51715;BME280;39115;59.332;18.034;2023-02-19T09:29:01;99885.97;;;1.09;54.10
51715;BME280;39115;59.332;18.034;2023-02-19T09:31:21;99896.28;;;1.12;54.18
51715;BME280;39115;59.332;18.034;2023-02-19T09:33:43;99910.88;;;1.16;53.49
51715;BME280;39115;59.332;18.034;2023-02-19T09:36:04;99898.59;;;1.17;53.50
51715;BME280;39115;59.332;18.034;2023-02-19T09:38:25;99900.28;;;1.18;53.56
51715;BME280;39115;59.332;18.034;2023-02-19T09:40:46;99893.06;;;1.21;54.03
51715;BME280;39115;59.332;18.034;2023-02-19T09:43:10;99892.69;;;1.28;53.71
51715;BME280;39115;59.332;18.034;2023-02-19T09:45:33;99898.38;;;1.34;53.43
51715;BME280;39115;59.332;18.034;2023-02-19T09:47:56;99911.03;;;1.42;53.66
51715;BME280;39115;59.332;18.034;2023-02-19T09:50:20;99904.00;;;1.42;53.35
51715;BME280;39115;59.332;18.034;2023-02-19T09:52:57;99913.25;;;1.48;53.76
51715;BME280;39115;59.332;18.034;2023-02-19T09:55:32;99911.94;;;1.55;53.35
51715;BME280;39115;59.332;18.034;2023-02-19T09:57:54;99913.63;;;1.56;53.16
51715;BME280;39115;59.332;18.034;2023-02-19T10:00:20;99924.88;;;1.58;52.97
51715;BME280;39115;59.332;18.034;2023-02-19T10:02:41;99927.38;;;1.60;53.33
51715;BME280;39115;59.332;18.034;2023-02-19T10:05:02;99923.63;;;1.64;52.88
51715;BME280;39115;59.332;18.034;2023-02-19T10:07:36;99919.75;;;1.70;53.07
51715;BME280;39115;59.332;18.034;2023-02-19T10:10:04;99918.81;;;1.71;52.86
51715;BME280;39115;59.332;18.034;2023-02-19T10:12:33;99934.56;;;1.71;52.46
51715;BME280;39115;59.332;18.034;2023-02-19T10:15:10;99942.06;;;1.77;53.14
51715;BME280;39115;59.332;18.034;2023-02-19T10:17:31;99931.66;;;1.76;52.41
51715;BME280;39115;59.332;18.034;2023-02-19T10:19:54;99946.19;;;1.81;52.17
51715;BME280;39115;59.332;18.034;2023-02-19T10:22:16;99937.38;;;1.82;52.31
51715;BME280;39115;59.332;18.034;2023-02-19T10:24:38;99950.28;;;1.85;52.58
51715;BME280;39115;59.332;18.034;2023-02-19T10:27:00;99962.06;;;1.93;52.55
51715;BME280;39115;59.332;18.034;2023-02-19T10:29:21;99968.81;;;1.97;52.11
51715;BME280;39115;59.332;18.034;2023-02-19T10:31:43;99961.78;;;1.97;52.32
51715;BME280;39115;59.332;18.034;2023-02-19T10:34:19;99971.03;;;2.03;52.37
51715;BME280;39115;59.332;18.034;2023-02-19T10:36:41;99968.13;;;2.08;52.20
51715;BME280;39115;59.332;18.034;2023-02-19T10:39:29;99976.34;;;2.16;52.40
51715;BME280;39115;59.332;18.034;2023-02-19T10:41:53;100003.31;;;2.18;52.04
51715;BME280;39115;59.332;18.034;2023-02-19T10:44:17;99965.94;;;2.14;52.05
51715;BME280;39115;59.332;18.034;2023-02-19T10:46:45;99983.47;;;2.14;51.79
51715;BME280;39115;59.332;18.034;2023-02-19T10:51:43;99961.97;;;2.21;51.72
51715;BME280;39115;59.332;18.034;2023-02-19T10:54:24;99981.66;;;2.29;51.90
51715;BME280;39115;59.332;18.034;2023-02-19T10:56:46;99961.56;;;2.28;51.57
51715;BME280;39115;59.332;18.034;2023-02-19T10:59:24;99953.69;;;2.28;51.66
51715;BME280;39115;59.332;18.034;2023-02-19T11:04:16;99959.59;;;2.31;51.37
51715;BME280;39115;59.332;18.034;2023-02-19T11:06:37;99952.53;;;2.32;51.51
51715;BME280;39115;59.332;18.034;2023-02-19T11:08:58;99967.06;;;2.37;51.33
51715;BME280;39115;59.332;18.034;2023-02-19T11:11:35;99962.44;;;2.41;51.54
51715;BME280;39115;59.332;18.034;2023-02-19T11:13:59;99967.69;;;2.41;51.21
51715;BME280;39115;59.332;18.034;2023-02-19T11:16:21;99976.22;;;2.45;51.06
51715;BME280;39115;59.332;18.034;2023-02-19T11:18:42;99987.38;;;2.48;51.17
51715;BME280;39115;59.332;18.034;2023-02-19T11:21:06;99977.59;;;2.50;50.88
51715;BME280;39115;59.332;18.034;2023-02-19T11:23:43;99981.19;;;2.49;51.27
51715;BME280;39115;59.332;18.034;2023-02-19T11:26:05;99979.59;;;2.47;50.82
51715;BME280;39115;59.332;18.034;2023-02-19T11:28:37;99975.28;;;2.46;50.65
51715;BME280;39115;59.332;18.034;2023-02-19T11:31:22;99980.13;;;2.52;51.07
51715;BME280;39115;59.332;18.034;2023-02-19T11:33:55;99980.97;;;2.52;51.06
51715;BME280;39115;59.332;18.034;2023-02-19T11:38:43;99986.66;;;2.59;50.69
51715;BME280;39115;59.332;18.034;2023-02-19T11:41:18;99979.63;;;2.60;50.62
51715;BME280;39115;59.332;18.034;2023-02-19T11:44:00;99987.28;;;2.63;50.76
51715;BME280;39115;59.332;18.034;2023-02-19T11:46:51;99986.34;;;2.64;50.81
51715;BME280;39115;59.332;18.034;2023-02-19T11:54:49;99995.72;;;2.68;50.87
51715;BME280;39115;59.332;18.034;2023-02-19T12:00:02;99994.25;;;2.77;50.50
51715;BME280;39115;59.332;18.034;2023-02-19T12:02:47;99993.97;;;2.81;50.37
51715;BME280;39115;59.332;18.034;2023-02-19T12:29:26;100011.53;;;2.94;49.90
51715;BME280;39115;59.332;18.034;2023-02-19T12:37:08;100013.09;;;3.09;49.85
51715;BME280;39115;59.332;18.034;2023-02-19T12:40:02;100014.69;;;3.12;49.61
51715;BME280;39115;59.332;18.034;2023-02-19T12:47:39;100027.75;;;3.13;49.13
51715;BME280;39115;59.332;18.034;2023-02-19T12:50:15;100011.09;;;3.13;49.10
51715;BME280;39115;59.332;18.034;2023-02-19T12:52:40;100008.47;;;3.13;49.06
51715;BME280;39115;59.332;18.034;2023-02-19T12:55:21;100015.31;;;3.15;49.17
51715;BME280;39115;59.332;18.034;2023-02-19T12:57:45;100029.09;;;3.19;48.56
51715;BME280;39115;59.332;18.034;2023-02-19T13:02:54;100050.47;;;3.14;48.59
51715;BME280;39115;59.332;18.034;2023-02-19T13:08:04;100030.28;;;3.15;48.37
51715;BME280;39115;59.332;18.034;2023-02-19T13:10:41;100031.84;;;3.17;48.44
51715;BME280;39115;59.332;18.034;2023-02-19T13:13:06;100020.50;;;3.17;48.05
51715;BME280;39115;59.332;18.034;2023-02-19T13:15:33;100034.16;;;3.22;48.01
51715;BME280;39115;59.332;18.034;2023-02-19T13:18:00;100042.78;;;3.24;47.98
51715;BME280;39115;59.332;18.034;2023-02-19T13:20:34;100022.69;;;3.23;47.98
51715;BME280;39115;59.332;18.034;2023-02-19T13:23:19;100041.22;;;3.22;47.72
51715;BME280;39115;59.332;18.034;2023-02-19T13:31:26;100047.84;;;3.14;47.65
51715;BME280;39115;59.332;18.034;2023-02-19T13:34:11;100046.78;;;3.17;48.20
51715;BME280;39115;59.332;18.034;2023-02-19T13:36:35;100037.97;;;3.18;47.73
51715;BME280;39115;59.332;18.034;2023-02-19T13:38:56;100050.88;;;3.21;47.66
51715;BME280;39115;59.332;18.034;2023-02-19T13:41:38;100041.84;;;3.25;47.98
51715;BME280;39115;59.332;18.034;2023-02-19T13:44:02;100052.25;;;3.27;47.62
51715;BME280;39115;59.332;18.034;2023-02-19T13:46:24;100044.38;;;3.27;47.87
51715;BME280;39115;59.332;18.034;2023-02-19T13:51:53;100042.88;;;3.23;47.98
51715;BME280;39115;59.332;18.034;2023-02-19T13:54:34;100046.69;;;3.19;48.05
51715;BME280;39115;59.332;18.034;2023-02-19T13:57:18;100043.41;;;3.15;48.24
51715;BME280;39115;59.332;18.034;2023-02-19T13:59:39;100056.69;;;3.13;47.59
51715;BME280;39115;59.332;18.034;2023-02-19T14:14:44;100072.56;;;2.99;48.05
51715;BME280;39115;59.332;18.034;2023-02-19T14:22:01;100083.03;;;2.86;48.19
51715;BME280;39115;59.332;18.034;2023-02-19T14:24:22;100082.47;;;2.81;48.02
51715;BME280;39115;59.332;18.034;2023-02-19T14:26:44;100077.31;;;2.79;47.74
51715;BME280;39115;59.332;18.034;2023-02-19T14:29:12;100090.66;;;2.76;48.21
51715;BME280;39115;59.332;18.034;2023-02-19T14:31:38;100109.16;;;2.75;48.07